»·PEaware :: GDS92 KUDD-KOAR

GDS92 :: KUDD-KOAR

FLIGHT INFORMATION

Flight Status: Arrived
Operator: Unknown
More flights by this operator :: More flights under this callsign
Pilot: Gabor H. (24209)
Aircraft: PILATUS PC-12 EAGLE
(PC12)
More flights by this aircraft type
Origin: KUDD Bermuda Dunes
United States
Destination: KOAR Marina
United States
More flights between these airports :: More routes between these airports
Route: +SNS
File this flight plan on PilotEdge
Remarks:
Altitude:
(Current/Filed)
24,000ft
Speed:
(Current/Filed)
260kts
Departed: 17-Apr-19 11:23 AM
Arrived: 17-Apr-19 12:56 PM
Distance/Time
Traveled:
321nm/1:33
Distance/Time
To Go:
Arrived

Flight Plot

Page will automatically refresh every two minutes.

Flight plan parsing failed; only flown route is shown


Map Options




Map Legend


Flown Route
Filed Route
Departure Airport
Arrival Airport
Navaid (VOR, NDB)
Fix

Horizontal Profiles

Position Reports

Time Latitude Longitude Heading Altitude Ground
Speed
17-Apr-19 11:07 33.745836 -116.270575 270 76ft 0kts
17-Apr-19 11:08 33.745836 -116.270575 270 76ft 0kts
17-Apr-19 11:09 33.745836 -116.270575 270 76ft 0kts
17-Apr-19 11:10 33.745836 -116.270575 270 76ft 0kts
17-Apr-19 11:11 33.745836 -116.270575 270 76ft 0kts
17-Apr-19 11:12 33.745836 -116.270575 270 76ft 0kts
17-Apr-19 11:13 33.745836 -116.270575 270 76ft 0kts
17-Apr-19 11:14 33.745836 -116.270575 270 76ft 0kts
17-Apr-19 11:15 33.745836 -116.270575 270 76ft 0kts
17-Apr-19 11:16 33.745836 -116.270578 270 76ft 0kts
17-Apr-19 11:17 33.745836 -116.270578 270 76ft 0kts
17-Apr-19 11:18 33.745836 -116.270578 270 76ft 0kts
17-Apr-19 11:19 33.746197 -116.270473 120 76ft 4kts
17-Apr-19 11:20 33.745437 -116.268542 116 76ft 5kts
17-Apr-19 11:21 33.745160 -116.267778 72 76ft 1kts
17-Apr-19 11:23 33.751352 -116.281789 296 417ft 120kts
17-Apr-19 11:24 33.785086 -116.282862 11 1952ft 137kts
17-Apr-19 11:25 33.822264 -116.271020 11 3459ft 139kts
17-Apr-19 11:26 33.852496 -116.286992 288 5003ft 152kts
17-Apr-19 11:27 33.861219 -116.340073 284 5747ft 169kts
17-Apr-19 11:28 33.866610 -116.396847 283 7110ft 178kts
17-Apr-19 11:29 33.892749 -116.440668 345 9066ft 183kts
17-Apr-19 11:30 33.942686 -116.457179 345 10991ft 195kts
17-Apr-19 11:31 33.995405 -116.477214 345 12492ft 205kts
17-Apr-19 11:32 34.047890 -116.497884 344 13973ft 194kts
17-Apr-19 11:33 34.100442 -116.518776 344 15523ft 212kts
17-Apr-19 11:34 34.156456 -116.540172 343 16986ft 206kts
17-Apr-19 11:35 34.210107 -116.561468 342 18480ft 200kts
17-Apr-19 11:36 34.262250 -116.582372 342 19986ft 194kts
17-Apr-19 11:37 34.313022 -116.601854 341 21485ft 188kts
17-Apr-19 11:38 34.362097 -116.621262 340 22980ft 182kts
17-Apr-19 11:39 34.414505 -116.641956 340 23278ft 210kts
17-Apr-19 11:40 34.469979 -116.664038 340 23741ft 209kts
17-Apr-19 11:41 34.507128 -116.712371 289 24217ft 224kts
17-Apr-19 11:41 34.514363 -116.776901 285 24252ft 237kts
17-Apr-19 11:43 34.523242 -116.870543 285 24257ft 240kts
17-Apr-19 11:44 34.530910 -116.951332 285 24258ft 241kts
17-Apr-19 11:45 34.538488 -117.032270 284 24254ft 242kts
17-Apr-19 11:45 34.544626 -117.099906 284 24260ft 242kts
17-Apr-19 11:46 34.552505 -117.180815 285 24270ft 242kts
17-Apr-19 11:47 34.560406 -117.261697 284 24280ft 241kts
17-Apr-19 11:49 34.569232 -117.356386 284 24289ft 242kts
17-Apr-19 11:50 34.576650 -117.437472 284 24289ft 242kts
17-Apr-19 11:50 34.582767 -117.505241 283 24284ft 242kts
17-Apr-19 11:51 34.589980 -117.586539 283 24276ft 242kts
17-Apr-19 11:52 34.596980 -117.668053 283 24271ft 243kts
17-Apr-19 11:53 34.604358 -117.749553 283 24269ft 243kts
17-Apr-19 11:54 34.612081 -117.831232 283 24275ft 242kts
17-Apr-19 11:55 34.619443 -117.913530 283 24270ft 251kts
17-Apr-19 11:56 34.626475 -117.996569 282 24275ft 244kts
17-Apr-19 11:57 34.644236 -118.073308 305 24281ft 234kts
17-Apr-19 11:58 34.683851 -118.135804 311 24279ft 233kts
17-Apr-19 11:59 34.725466 -118.196618 311 24280ft 234kts
17-Apr-19 12:00 34.767149 -118.257079 311 24280ft 234kts
17-Apr-19 12:01 34.809132 -118.318006 311 24283ft 234kts
17-Apr-19 12:02 34.850935 -118.378780 311 24288ft 234kts
17-Apr-19 12:03 34.892692 -118.439633 311 24293ft 234kts
17-Apr-19 12:04 34.934503 -118.500729 311 24303ft 235kts
17-Apr-19 12:05 34.976383 -118.562205 311 24304ft 235kts
17-Apr-19 12:06 35.016068 -118.625692 305 24304ft 236kts
17-Apr-19 12:07 35.050312 -118.694150 303 24304ft 236kts
17-Apr-19 12:08 35.083526 -118.763568 302 24302ft 237kts
17-Apr-19 12:09 35.116695 -118.833630 302 24299ft 237kts
17-Apr-19 12:10 35.148953 -118.902036 302 24292ft 237kts
17-Apr-19 12:11 35.181899 -118.972064 302 24271ft 238kts
17-Apr-19 12:12 35.214229 -119.040927 302 24266ft 238kts
17-Apr-19 12:13 35.247201 -119.111304 302 24265ft 238kts
17-Apr-19 12:14 35.280231 -119.181952 302 24264ft 238kts
17-Apr-19 12:15 35.313109 -119.252428 301 24264ft 238kts
17-Apr-19 12:16 35.346009 -119.323088 301 24264ft 239kts
17-Apr-19 12:17 35.378914 -119.393916 301 24263ft 239kts
17-Apr-19 12:18 35.411790 -119.464827 301 24264ft 239kts
17-Apr-19 12:19 35.444762 -119.536109 301 24266ft 240kts
17-Apr-19 12:20 35.477656 -119.607376 301 24263ft 240kts
17-Apr-19 12:21 35.510517 -119.678739 301 24262ft 240kts
17-Apr-19 12:22 35.543323 -119.750160 301 24259ft 240kts
17-Apr-19 12:23 35.576096 -119.821702 301 24257ft 240kts
17-Apr-19 12:24 35.608934 -119.893654 301 24255ft 241kts
17-Apr-19 12:25 35.641158 -119.965996 298 24251ft 241kts
17-Apr-19 12:26 35.668277 -120.041659 295 24251ft 242kts
17-Apr-19 12:27 35.693835 -120.118285 294 24265ft 242kts
17-Apr-19 12:28 35.719102 -120.195155 294 24261ft 242kts
17-Apr-19 12:29 35.744348 -120.272353 294 24261ft 242kts
17-Apr-19 12:30 35.770942 -120.346836 306 24263ft 240kts
17-Apr-19 12:31 35.813657 -120.410222 311 24263ft 241kts
17-Apr-19 12:32 35.857600 -120.472597 311 24262ft 241kts
17-Apr-19 12:33 35.900926 -120.534199 311 24261ft 241kts
17-Apr-19 12:34 35.944845 -120.596682 311 24261ft 241kts
17-Apr-19 12:35 35.988802 -120.659254 311 24262ft 241kts
17-Apr-19 12:36 36.032668 -120.722109 311 24266ft 240kts
17-Apr-19 12:37 36.076205 -120.784859 311 24267ft 240kts
17-Apr-19 12:38 36.120705 -120.849114 311 23095ft 257kts
17-Apr-19 12:39 36.166876 -120.915814 311 21397ft 253kts
17-Apr-19 12:40 36.212944 -120.982137 311 19692ft 253kts
17-Apr-19 12:41 36.258967 -121.048245 311 17996ft 256kts
17-Apr-19 12:42 36.306336 -121.115543 312 16296ft 260kts
17-Apr-19 12:43 36.354077 -121.182624 312 14598ft 259kts
17-Apr-19 12:44 36.402103 -121.250529 312 12894ft 261kts
17-Apr-19 12:45 36.449946 -121.317310 313 11195ft 255kts
17-Apr-19 12:46 36.497076 -121.382378 313 9496ft 253kts
17-Apr-19 12:47 36.543537 -121.446383 313 7514ft 242kts
17-Apr-19 12:48 36.587760 -121.507377 307 5513ft 233kts
17-Apr-19 12:49 36.581217 -121.577433 236 4686ft 229kts
17-Apr-19 12:50 36.582841 -121.652107 297 2999ft 226kts
17-Apr-19 12:51 36.612555 -121.709187 313 1986ft 164kts
17-Apr-19 12:52 36.638846 -121.743204 328 1566ft 95kts
17-Apr-19 12:53 36.661564 -121.736711 22 1115ft 76kts
17-Apr-19 12:54 36.675334 -121.749564 301 369ft 62kts
17-Apr-19 12:55 36.681771 -121.762196 291 137ft 14kts
17-Apr-19 12:56 36.680347 -121.762529 124 137ft 16kts
17-Apr-19 12:57 36.678936 -121.760768 301 137ft 0kts
17-Apr-19 12:58 36.678936 -121.760768 301 137ft 0kts
17-Apr-19 12:59 36.678936 -121.760768 301 137ft 0kts
17-Apr-19 13:00 36.678936 -121.760768 301 137ft 0kts
17-Apr-19 13:01 36.678936 -121.760768 301 137ft 0kts
17-Apr-19 13:02 36.678936 -121.760768 301 137ft 0kts
17-Apr-19 13:03 36.678936 -121.760768 301 137ft 0kts
17-Apr-19 13:04 36.678936 -121.760768 301 137ft 0kts
17-Apr-19 13:05 36.678936 -121.760768 301 137ft 0kts
17-Apr-19 13:06 36.678936 -121.760768 301 137ft 0kts
17-Apr-19 13:07 36.678936 -121.760768 301 137ft 0kts
17-Apr-19 13:08 36.678936 -121.760768 301 137ft 0kts
17-Apr-19 13:09 36.678936 -121.760768 301 137ft 0kts

Navigation Log

Ident Type
Flight plan parsing failed, navigation log unavailable